createdAt,value
2019-06-08T00:02:20.682Z,100.00
2019-06-08T00:04:50.290Z,100.00
2019-06-08T00:07:20.885Z,100.00
2019-06-08T00:09:50.427Z,100.00
2019-06-08T00:12:21.215Z,100.00
2019-06-08T00:14:50.908Z,100.00
2019-06-08T00:17:34.346Z,100.00
2019-06-08T00:19:51.590Z,100.00
2019-06-08T00:22:21.924Z,100.00
2019-06-08T00:24:51.548Z,100.00
2019-06-08T00:27:22.687Z,100.00
2019-06-08T00:29:52.151Z,100.00
2019-06-08T00:32:22.632Z,100.00
2019-06-08T00:34:52.100Z,100.00
2019-06-08T00:37:22.854Z,100.00
2019-06-08T00:39:52.365Z,100.00
2019-06-08T00:42:21.813Z,100.00
2019-06-08T00:44:51.240Z,100.00
2019-06-08T00:47:20.688Z,100.00
2019-06-08T00:49:50.129Z,100.00
2019-06-08T00:52:19.623Z,100.00
2019-06-08T00:54:49.052Z,100.00
2019-06-08T00:57:19.589Z,100.00
2019-06-08T00:59:49.223Z,100.00
2019-06-08T01:02:18.659Z,100.00
2019-06-08T01:04:48.096Z,100.00
2019-06-08T01:07:17.919Z,100.00
2019-06-08T01:09:47.456Z,100.00
2019-06-08T01:12:16.901Z,100.00
2019-06-08T01:14:46.358Z,100.00
2019-06-08T01:17:15.814Z,100.00
2019-06-08T01:19:45.227Z,100.00
2019-06-08T01:22:14.794Z,100.00
2019-06-08T01:24:44.230Z,100.00
2019-06-08T01:27:13.683Z,100.00
2019-06-08T01:29:43.231Z,100.00
2019-06-08T01:32:12.692Z,100.00
2019-06-08T01:34:42.135Z,100.00
2019-06-08T01:37:11.583Z,100.00
2019-06-08T01:39:41.022Z,100.00
2019-06-08T01:42:10.471Z,100.00
2019-06-08T01:44:39.892Z,100.00
2019-06-08T01:47:09.336Z,100.00
2019-06-08T01:49:38.785Z,100.00
2019-06-08T01:52:08.225Z,100.00
2019-06-08T01:54:37.642Z,100.00
2019-06-08T01:57:07.089Z,100.00
2019-06-08T01:59:36.545Z,100.00
2019-06-08T02:02:05.990Z,100.00
2019-06-08T02:04:35.426Z,100.00
2019-06-08T02:07:04.874Z,100.00
2019-06-08T02:09:34.833Z,100.00
2019-06-08T02:12:04.447Z,100.00
2019-06-08T02:14:35.312Z,100.00
2019-06-08T02:17:04.942Z,100.00
2019-06-08T02:19:34.829Z,100.00
2019-06-08T02:22:04.311Z,100.00
2019-06-08T02:24:33.736Z,100.00
2019-06-08T02:27:03.185Z,100.00
2019-06-08T02:29:33.701Z,100.00
2019-06-08T02:32:03.233Z,100.00
2019-06-08T02:34:34.728Z,100.00
2019-06-08T02:37:03.818Z,100.00
2019-06-08T02:39:35.352Z,100.00
2019-06-08T02:42:04.737Z,100.00
2019-06-08T02:44:34.512Z,100.00
2019-06-08T02:47:03.985Z,100.00
2019-06-08T02:49:35.242Z,100.00
2019-06-08T02:52:04.876Z,100.00
2019-06-08T02:54:35.520Z,100.00
2019-06-08T02:57:05.598Z,100.00
2019-06-08T02:59:38.636Z,100.00
2019-06-08T03:02:08.975Z,100.00
2019-06-08T03:04:41.095Z,100.00
2019-06-08T03:07:11.235Z,100.00
2019-06-08T03:09:41.140Z,100.00
2019-06-08T03:12:10.904Z,100.00
2019-06-08T03:14:42.082Z,100.00
2019-06-08T03:17:11.786Z,100.00
2019-06-08T03:19:41.959Z,100.00
2019-06-08T03:22:11.699Z,100.00
2019-06-08T03:24:41.621Z,100.00
2019-06-08T03:27:11.636Z,100.00
2019-06-08T03:29:42.153Z,100.00
2019-06-08T03:32:12.545Z,100.00
2019-06-08T03:34:51.149Z,100.00
2019-06-08T03:37:13.179Z,100.00
2019-06-08T03:39:43.097Z,100.00
2019-06-08T03:42:14.383Z,100.00
2019-06-08T03:44:45.959Z,100.00
2019-06-08T03:47:15.573Z,100.00
2019-06-08T03:49:54.809Z,100.00
2019-06-08T03:52:16.320Z,94.22
2019-06-08T03:54:47.034Z,86.52
2019-06-08T03:57:16.899Z,88.05
2019-06-08T03:59:47.851Z,88.74
2019-06-08T04:02:17.441Z,84.90
2019-06-08T04:04:46.983Z,82.11
2019-06-08T04:07:16.424Z,81.60
2019-06-08T04:09:46.126Z,76.93
2019-06-08T04:12:15.684Z,71.97
2019-06-08T04:14:46.650Z,67.88
2019-06-08T04:17:16.310Z,63.35
2019-06-08T04:20:08.759Z,58.66
2019-06-08T04:22:17.080Z,54.81
2019-06-08T04:24:46.724Z,52.34
2019-06-08T04:27:16.272Z,49.94
2019-06-08T04:29:46.164Z,48.20
2019-06-08T04:32:15.695Z,46.87
2019-06-08T04:34:45.992Z,45.25
2019-06-08T04:37:16.282Z,44.63
2019-06-08T04:39:46.928Z,44.34
2019-06-08T04:42:16.780Z,42.73
2019-06-08T04:44:46.970Z,43.40
2019-06-08T04:47:17.155Z,43.40
2019-06-08T04:49:47.227Z,42.46
2019-06-08T04:52:17.731Z,41.28
2019-06-08T04:54:48.127Z,40.13
2019-06-08T04:57:18.517Z,39.64
2019-06-08T04:59:50.273Z,37.49
2019-06-08T05:02:19.369Z,35.46
2019-06-08T05:04:49.508Z,36.01
2019-06-08T05:07:19.083Z,36.12
2019-06-08T05:09:49.456Z,36.37
2019-06-08T05:12:19.084Z,36.30
2019-06-08T05:14:49.247Z,35.25
2019-06-08T05:17:18.852Z,34.50
2019-06-08T05:19:50.330Z,33.80
2019-06-08T05:22:19.658Z,35.39
2019-06-08T05:24:49.986Z,36.07
2019-06-08T05:27:19.649Z,35.30
2019-06-08T05:29:50.044Z,35.19
2019-06-08T05:32:19.853Z,35.37
2019-06-08T05:34:49.684Z,37.26
2019-06-08T05:37:19.358Z,37.24
2019-06-08T05:39:49.934Z,38.00
2019-06-08T05:42:19.498Z,37.60
2019-06-08T05:44:50.317Z,37.13
2019-06-08T05:47:19.906Z,35.86
2019-06-08T05:49:49.991Z,35.86
2019-06-08T05:52:19.552Z,35.20
2019-06-08T05:54:50.197Z,34.28
2019-06-08T05:57:19.707Z,34.05
2019-06-08T05:59:50.336Z,33.68
2019-06-08T06:02:20.027Z,32.72
2019-06-08T06:04:52.138Z,34.51
2019-06-08T06:07:20.870Z,34.29
2019-06-08T06:09:51.140Z,33.42
2019-06-08T06:12:20.676Z,33.51
2019-06-08T06:14:51.248Z,32.56
2019-06-08T06:17:20.843Z,32.35
2019-06-08T06:19:51.518Z,32.42
2019-06-08T06:22:21.313Z,32.46
2019-06-08T06:24:51.907Z,32.67
2019-06-08T06:27:21.625Z,36.26
2019-06-08T06:29:52.045Z,39.41
2019-06-08T06:32:21.662Z,46.09
2019-06-08T06:34:52.185Z,48.10
2019-06-08T06:37:21.874Z,49.14
2019-06-08T06:39:52.299Z,53.65
2019-06-08T06:42:24.833Z,53.48
2019-06-08T06:44:55.884Z,51.97
2019-06-08T06:47:25.389Z,52.15
2019-06-08T06:49:54.962Z,52.44
2019-06-08T06:52:24.461Z,55.63
2019-06-08T06:54:53.962Z,57.65
2019-06-08T06:57:23.445Z,57.00
2019-06-08T06:59:54.172Z,53.17
2019-06-08T07:02:23.961Z,50.60
2019-06-08T07:04:54.327Z,46.98
2019-06-08T07:07:23.870Z,43.84
2019-06-08T07:09:54.753Z,41.62
2019-06-08T07:12:24.601Z,41.21
2019-06-08T07:14:55.453Z,41.52
2019-06-08T07:17:25.171Z,39.99
2019-06-08T07:19:54.800Z,38.84
2019-06-08T07:22:24.390Z,37.59
2019-06-08T07:24:54.539Z,36.52
2019-06-08T07:27:24.176Z,38.11
2019-06-08T07:29:54.782Z,39.18
2019-06-08T07:32:24.366Z,40.33
2019-06-08T07:34:55.159Z,42.30
2019-06-08T07:37:24.808Z,43.40
2019-06-08T07:39:55.956Z,44.26
2019-06-08T07:42:25.701Z,48.33
2019-06-08T07:44:55.324Z,51.28
2019-06-08T07:47:24.761Z,51.87
2019-06-08T07:49:55.448Z,51.44
2019-06-08T07:52:25.273Z,49.25
2019-06-08T07:54:54.868Z,49.34
2019-06-08T07:57:24.281Z,52.68
2019-06-08T07:59:54.549Z,54.72
2019-06-08T08:02:24.711Z,54.04
2019-06-08T08:04:54.612Z,48.26
2019-06-08T08:07:24.300Z,46.24
2019-06-08T08:09:54.918Z,46.10
2019-06-08T08:12:24.592Z,47.08
2019-06-08T08:14:55.445Z,45.91
2019-06-08T08:17:25.076Z,43.23
2019-06-08T08:19:55.152Z,46.24
2019-06-08T08:22:26.421Z,47.23
2019-06-08T08:25:02.289Z,47.73
2019-06-08T08:27:28.033Z,48.58
2019-06-08T08:30:00.035Z,46.37
2019-06-08T08:32:28.933Z,46.19
2019-06-08T08:35:00.868Z,49.64
2019-06-08T08:37:29.580Z,48.74
2019-06-08T08:40:01.326Z,47.27
2019-06-08T08:42:30.421Z,46.61
2019-06-08T08:45:05.119Z,45.28
2019-06-08T08:47:31.141Z,48.46
2019-06-08T08:50:02.217Z,51.54
2019-06-08T08:52:37.134Z,51.68
2019-06-08T08:55:02.994Z,52.12
2019-06-08T08:57:32.478Z,51.49
2019-06-08T09:00:05.039Z,52.27
2019-06-08T09:02:33.300Z,49.80
2019-06-08T09:05:03.669Z,52.26
2019-06-08T09:07:33.397Z,51.50
2019-06-08T09:10:03.761Z,50.88
2019-06-08T09:12:33.801Z,52.74
2019-06-08T09:15:03.984Z,50.51
2019-06-08T09:17:33.628Z,50.73
2019-06-08T09:20:03.838Z,49.02
2019-06-08T09:22:33.376Z,51.80
2019-06-08T09:25:04.422Z,51.31
2019-06-08T09:27:34.212Z,50.71
2019-06-08T09:30:04.765Z,53.21
2019-06-08T09:32:34.495Z,48.81
2019-06-08T09:35:09.303Z,48.87
2019-06-08T09:37:38.698Z,48.84
2019-06-08T09:40:08.167Z,49.39
2019-06-08T09:42:37.586Z,47.86
2019-06-08T09:45:09.208Z,47.91
2019-06-08T09:47:38.770Z,49.21
2019-06-08T09:50:09.564Z,46.66
2019-06-08T09:52:41.253Z,48.38
2019-06-08T09:55:10.795Z,47.46
2019-06-08T09:57:40.221Z,45.14
2019-06-08T10:00:18.078Z,47.72
2019-06-08T10:02:40.877Z,44.79
2019-06-08T10:05:10.418Z,48.00
2019-06-08T10:07:39.870Z,46.38
2019-06-08T10:10:10.047Z,44.27
2019-06-08T10:12:41.064Z,42.76
2019-06-08T10:15:11.050Z,42.96
2019-06-08T10:17:40.504Z,42.89
2019-06-08T10:20:10.279Z,41.08
2019-06-08T10:22:39.882Z,41.29
2019-06-08T10:25:11.174Z,38.88
2019-06-08T10:27:40.541Z,39.47
2019-06-08T10:30:10.569Z,41.44
2019-06-08T10:32:40.181Z,37.30
2019-06-08T10:35:10.441Z,37.04
2019-06-08T10:37:40.206Z,38.61
2019-06-08T10:40:09.684Z,35.30
2019-06-08T10:42:40.199Z,31.33
2019-06-08T10:45:14.348Z,31.01
2019-06-08T10:47:42.542Z,28.91
2019-06-08T10:50:15.290Z,28.55
2019-06-08T10:52:43.113Z,27.71
2019-06-08T10:55:13.094Z,30.20
2019-06-08T10:57:42.513Z,26.16
2019-06-08T11:00:20.078Z,26.60
2019-06-08T11:02:43.170Z,26.40
2019-06-08T11:05:14.136Z,27.14
2019-06-08T11:07:43.842Z,26.17
2019-06-08T11:10:13.297Z,27.14
2019-06-08T11:12:42.723Z,25.95
2019-06-08T11:15:12.243Z,23.95
2019-06-08T11:17:41.654Z,25.47
2019-06-08T11:20:13.460Z,26.28
2019-06-08T11:22:42.282Z,28.49
2019-06-08T11:25:16.071Z,28.04
2019-06-08T11:27:42.855Z,27.48
2019-06-08T11:30:20.396Z,26.62
2019-06-08T11:32:43.475Z,29.42
2019-06-08T11:35:12.905Z,27.61
2019-06-08T11:37:42.301Z,26.45
2019-06-08T11:40:12.873Z,26.52
2019-06-08T11:42:42.586Z,25.14
2019-06-08T11:45:13.014Z,25.32
2019-06-08T11:47:42.809Z,24.25
2019-06-08T11:50:13.378Z,25.48
2019-06-08T11:52:42.919Z,25.40
2019-06-08T11:55:13.168Z,26.29
2019-06-08T11:57:42.771Z,26.12
2019-06-08T12:00:24.255Z,24.86
2019-06-08T12:02:48.495Z,25.39
2019-06-08T12:05:18.095Z,25.04
2019-06-08T12:07:48.130Z,23.94
2019-06-08T12:10:17.894Z,24.41
2019-06-08T12:12:47.309Z,24.62
2019-06-08T12:15:20.756Z,22.41
2019-06-08T12:17:50.204Z,23.17
2019-06-08T12:20:21.303Z,24.65
2019-06-08T12:22:50.239Z,22.88
2019-06-08T12:25:19.687Z,23.72
2019-06-08T12:27:52.494Z,23.73
2019-06-08T12:30:26.017Z,23.37
2019-06-08T12:32:51.503Z,23.18
2019-06-08T12:35:20.923Z,23.37
2019-06-08T12:37:51.527Z,24.29
2019-06-08T12:40:21.149Z,24.60
2019-06-08T12:42:50.561Z,24.71
2019-06-08T12:45:20.486Z,24.80
2019-06-08T12:47:50.020Z,23.82
2019-06-08T12:50:20.072Z,24.34
2019-06-08T12:52:49.531Z,23.54
2019-06-08T12:55:24.722Z,23.30
2019-06-08T12:57:51.731Z,23.83
2019-06-08T13:00:21.586Z,23.74
2019-06-08T13:02:51.228Z,24.00
2019-06-08T13:05:22.884Z,24.37
2019-06-08T13:07:51.781Z,27.05
2019-06-08T13:10:24.144Z,24.95
2019-06-08T13:12:52.363Z,24.43
2019-06-08T13:15:22.144Z,24.82
2019-06-08T13:17:51.594Z,25.53
2019-06-08T13:20:22.236Z,24.30
2019-06-08T13:22:51.951Z,24.74
2019-06-08T13:25:36.204Z,25.17
2019-06-08T13:27:52.647Z,25.92
2019-06-08T13:30:25.897Z,25.14
2019-06-08T13:32:53.238Z,25.23
2019-06-08T13:35:22.868Z,25.36
2019-06-08T13:37:52.283Z,24.35
2019-06-08T13:40:23.534Z,25.07
2019-06-08T13:42:52.884Z,24.80
2019-06-08T13:45:23.512Z,24.31
2019-06-08T13:47:53.016Z,24.51
2019-06-08T13:50:23.937Z,23.85
2019-06-08T13:52:53.460Z,24.27
2019-06-08T13:55:40.373Z,26.01
2019-06-08T13:57:54.021Z,27.68
2019-06-08T14:00:34.503Z,28.46
2019-06-08T14:03:03.935Z,32.14
2019-06-08T14:05:33.365Z,32.10
2019-06-08T14:08:02.788Z,32.24
2019-06-08T14:10:38.553Z,33.20
2019-06-08T14:13:07.710Z,33.99
2019-06-08T14:15:37.888Z,34.91
2019-06-08T14:18:08.800Z,35.87
2019-06-08T14:20:38.939Z,37.08
2019-06-08T14:23:08.954Z,38.70
2019-06-08T14:25:50.541Z,39.37
2019-06-08T14:28:10.035Z,39.06
2019-06-08T14:30:39.442Z,39.20
2019-06-08T14:33:08.872Z,39.62
2019-06-08T14:35:38.304Z,42.02
2019-06-08T14:38:07.768Z,39.86
2019-06-08T14:40:37.666Z,40.43
2019-06-08T14:43:10.458Z,42.95
2019-06-08T14:45:38.361Z,42.39
2019-06-08T14:48:07.820Z,41.96
2019-06-08T14:50:40.389Z,41.92
2019-06-08T14:53:08.775Z,41.64
2019-06-08T14:55:38.829Z,42.29
2019-06-08T14:58:08.624Z,43.11
2019-06-08T15:00:38.428Z,42.94
2019-06-08T15:03:08.166Z,43.27
2019-06-08T15:05:37.738Z,44.38
2019-06-08T15:08:08.302Z,44.52
2019-06-08T15:10:38.468Z,43.29
2019-06-08T15:13:08.065Z,45.35
2019-06-08T15:15:38.249Z,44.50
2019-06-08T15:18:11.001Z,44.33
2019-06-08T15:20:39.190Z,43.96
2019-06-08T15:23:08.833Z,44.21
2019-06-08T15:25:38.816Z,44.44
2019-06-08T15:28:08.591Z,46.00
2019-06-08T15:30:38.271Z,44.83
2019-06-08T15:33:07.735Z,45.52
2019-06-08T15:35:37.829Z,46.79
2019-06-08T15:38:08.344Z,46.37
2019-06-08T15:40:38.320Z,46.42
2019-06-08T15:43:08.624Z,45.67
2019-06-08T15:45:38.971Z,47.43
2019-06-08T15:48:08.462Z,46.45
2019-06-08T15:50:38.109Z,48.20
2019-06-08T15:53:08.328Z,53.70
2019-06-08T15:55:38.399Z,55.39
2019-06-08T15:58:09.032Z,54.69
2019-06-08T16:00:38.861Z,55.78
2019-06-08T16:03:08.368Z,58.44
2019-06-08T16:05:37.820Z,58.44
2019-06-08T16:08:07.454Z,53.96
2019-06-08T16:10:36.997Z,52.40
2019-06-08T16:13:06.485Z,50.93
2019-06-08T16:15:35.913Z,52.47
2019-06-08T16:18:05.353Z,52.47
2019-06-08T16:20:35.774Z,52.27
2019-06-08T16:23:05.231Z,53.04
2019-06-08T16:25:38.347Z,53.09
2019-06-08T16:28:05.872Z,54.50
2019-06-08T16:30:35.376Z,54.36
2019-06-08T16:33:04.915Z,55.17
2019-06-08T16:35:35.770Z,56.64
2019-06-08T16:38:05.534Z,56.50
2019-06-08T16:40:36.349Z,59.19
2019-06-08T16:43:05.880Z,58.07
2019-06-08T16:45:35.482Z,58.42
2019-06-08T16:48:05.178Z,62.51
2019-06-08T16:50:34.617Z,62.51
2019-06-08T16:53:04.046Z,60.78
2019-06-08T16:55:33.969Z,61.76
2019-06-08T16:58:03.695Z,62.67
2019-06-08T17:00:38.392Z,64.17
2019-06-08T17:03:04.931Z,64.66
2019-06-08T17:05:35.296Z,65.48
2019-06-08T17:08:04.851Z,65.49
2019-06-08T17:10:34.648Z,65.90
2019-06-08T17:13:04.554Z,66.10
2019-06-08T17:15:34.165Z,67.98
2019-06-08T17:18:03.700Z,67.76
2019-06-08T17:20:34.050Z,69.22
2019-06-08T17:23:03.670Z,69.30
2019-06-08T17:25:34.417Z,69.65
2019-06-08T17:28:04.005Z,70.20
2019-06-08T17:30:34.617Z,70.90
2019-06-08T17:33:04.625Z,71.44
2019-06-08T17:35:35.577Z,71.82
2019-06-08T17:38:05.104Z,73.59
2019-06-08T17:40:35.826Z,74.53
2019-06-08T17:43:05.317Z,73.82
2019-06-08T17:45:34.865Z,74.29
2019-06-08T17:48:04.422Z,75.45
2019-06-08T17:50:34.659Z,75.30
2019-06-08T17:53:04.542Z,75.76
2019-06-08T17:55:35.122Z,76.35
2019-06-08T17:58:04.797Z,77.39
2019-06-08T18:00:35.334Z,78.13
2019-06-08T18:03:04.875Z,77.91
2019-06-08T18:05:35.873Z,79.06
2019-06-08T18:08:07.709Z,79.75
2019-06-08T18:10:38.932Z,81.21
2019-06-08T18:13:08.014Z,81.22
2019-06-08T18:15:39.970Z,80.62
2019-06-08T18:18:08.729Z,80.02
2019-06-08T18:20:40.530Z,79.30
2019-06-08T18:23:09.387Z,78.54
2019-06-08T18:25:40.355Z,78.97
2019-06-08T18:28:13.498Z,79.73
2019-06-08T18:30:43.447Z,79.71
2019-06-08T18:33:12.540Z,80.01
2019-06-08T18:35:44.473Z,80.31
2019-06-08T18:38:13.289Z,80.50
2019-06-08T18:40:43.443Z,80.39
2019-06-08T18:43:12.946Z,79.66
2019-06-08T18:45:43.144Z,79.63
2019-06-08T18:48:13.902Z,80.75
2019-06-08T18:50:43.660Z,80.26
2019-06-08T18:53:13.184Z,79.60
2019-06-08T18:55:44.026Z,79.15
2019-06-08T18:58:23.799Z,78.21
2019-06-08T19:00:49.137Z,78.52
2019-06-08T19:03:17.152Z,78.50
2019-06-08T19:05:49.968Z,78.08
2019-06-08T19:08:18.341Z,78.31
2019-06-08T19:10:48.461Z,79.09
2019-06-08T19:13:19.248Z,78.99
2019-06-08T19:15:52.951Z,80.15
2019-06-08T19:18:21.673Z,81.46
2019-06-08T19:20:53.572Z,79.76
2019-06-08T19:23:22.532Z,79.68
2019-06-08T19:25:52.046Z,80.11
2019-06-08T19:28:35.139Z,80.98
2019-06-08T19:30:52.820Z,80.94
2019-06-08T19:33:22.246Z,81.22
2019-06-08T19:35:53.842Z,82.00
2019-06-08T19:38:23.045Z,81.42
2019-06-08T19:40:52.468Z,81.87
2019-06-08T19:43:21.955Z,82.52
2019-06-08T19:45:52.115Z,83.21
2019-06-08T19:48:21.673Z,83.92
2019-06-08T19:50:54.217Z,84.52
2019-06-08T19:53:22.415Z,84.15
2019-06-08T19:55:54.035Z,85.39
2019-06-08T19:58:23.058Z,84.10
2019-06-08T20:00:54.780Z,83.36
2019-06-08T20:03:23.833Z,84.78
2019-06-08T20:05:53.641Z,86.15
2019-06-08T20:08:23.225Z,87.17
2019-06-08T20:10:53.710Z,88.24
2019-06-08T20:13:23.349Z,86.20
2019-06-08T20:15:58.333Z,86.32
2019-06-08T20:18:24.222Z,84.59
2019-06-08T20:20:54.485Z,85.22
2019-06-08T20:23:24.076Z,86.60
2019-06-08T20:25:53.512Z,85.87
2019-06-08T20:28:22.959Z,86.78
2019-06-08T20:30:52.718Z,89.35
2019-06-08T20:33:22.184Z,88.54
2019-06-08T20:35:52.000Z,88.10
2019-06-08T20:38:34.046Z,89.79
2019-06-08T20:40:52.842Z,90.06
2019-06-08T20:43:22.468Z,90.90
2019-06-08T20:45:53.427Z,91.83
2019-06-08T20:48:23.088Z,91.90
2019-06-08T20:50:53.702Z,92.88
2019-06-08T20:53:23.155Z,93.69
2019-06-08T20:55:53.860Z,95.12
2019-06-08T20:58:23.394Z,95.24
2019-06-08T21:00:54.151Z,95.67
2019-06-08T21:03:23.833Z,95.53
2019-06-08T21:05:54.231Z,95.29
2019-06-08T21:08:23.945Z,96.01
2019-06-08T21:10:54.642Z,95.99
2019-06-08T21:13:24.625Z,96.97
2019-06-08T21:15:57.274Z,96.45
2019-06-08T21:18:27.476Z,95.93
2019-06-08T21:20:58.062Z,94.49
2019-06-08T21:23:29.780Z,93.36
2019-06-08T21:26:00.065Z,93.00
2019-06-08T21:28:29.762Z,91.84
2019-06-08T21:31:02.138Z,90.79
2019-06-08T21:33:30.484Z,91.43
2019-06-08T21:36:04.638Z,91.94
2019-06-08T21:38:31.220Z,92.26
2019-06-08T21:41:02.805Z,92.21
2019-06-08T21:43:31.879Z,93.56
2019-06-08T21:46:01.322Z,94.54
2019-06-08T21:48:30.888Z,95.09
2019-06-08T21:51:01.767Z,94.83
2019-06-08T21:53:31.424Z,93.53
2019-06-08T21:56:00.953Z,93.66
2019-06-08T21:58:30.441Z,93.20
2019-06-08T22:01:01.120Z,93.25
2019-06-08T22:03:30.727Z,93.40
2019-06-08T22:06:00.330Z,92.69
2019-06-08T22:08:29.733Z,92.51
2019-06-08T22:11:00.672Z,92.01
2019-06-08T22:13:30.261Z,92.02
2019-06-08T22:16:02.083Z,91.82
2019-06-08T22:18:31.150Z,91.88
2019-06-08T22:21:01.160Z,91.39
2019-06-08T22:23:30.824Z,91.25
2019-06-08T22:26:01.186Z,91.16
2019-06-08T22:28:30.902Z,91.21
2019-06-08T22:31:01.720Z,91.57
2019-06-08T22:33:31.453Z,91.22
2019-06-08T22:36:00.877Z,91.90
2019-06-08T22:38:30.407Z,91.83
2019-06-08T22:41:00.675Z,92.47
2019-06-08T22:43:31.100Z,92.31
2019-06-08T22:46:01.828Z,93.43
2019-06-08T22:48:31.805Z,93.12
2019-06-08T22:51:03.141Z,92.90
2019-06-08T22:53:32.574Z,93.15
2019-06-08T22:56:03.044Z,93.57
2019-06-08T22:58:33.555Z,94.27
2019-06-08T23:01:06.243Z,94.47
2019-06-08T23:03:34.307Z,94.31
2019-06-08T23:06:05.305Z,94.69
2019-06-08T23:08:37.302Z,95.34
2019-06-08T23:11:08.556Z,95.90
2019-06-08T23:13:37.850Z,96.30
2019-06-08T23:16:08.924Z,96.92
2019-06-08T23:18:38.670Z,97.04
2019-06-08T23:21:08.975Z,97.27
2019-06-08T23:23:38.575Z,97.68
2019-06-08T23:26:10.515Z,97.92
2019-06-08T23:28:39.396Z,98.54
2019-06-08T23:31:19.350Z,98.92
2019-06-08T23:33:40.106Z,99.30
2019-06-08T23:36:39.509Z,99.51
2019-06-08T23:38:40.839Z,99.89
2019-06-08T23:41:10.358Z,100.00
2019-06-08T23:43:39.870Z,100.00
2019-06-08T23:46:09.454Z,100.00
2019-06-08T23:48:39.032Z,100.00
2019-06-08T23:51:10.854Z,100.00
2019-06-08T23:53:39.912Z,100.00
2019-06-08T23:56:11.768Z,100.00
2019-06-08T23:58:40.782Z,100.00
